createdAt,value
2023-05-22T00:00:35.685Z,56.20
2023-05-22T00:01:42.879Z,55.41
2023-05-22T00:02:45.075Z,55.71
2023-05-22T00:03:47.068Z,55.75
2023-05-22T00:04:48.829Z,55.84
2023-05-22T00:05:50.766Z,56.11
2023-05-22T00:06:53.170Z,56.28
2023-05-22T00:07:55.160Z,56.22
2023-05-22T00:08:57.132Z,56.25
2023-05-22T00:09:58.679Z,56.46
2023-05-22T00:11:00.254Z,56.41
2023-05-22T00:12:01.914Z,56.45
2023-05-22T00:13:03.766Z,56.34
2023-05-22T00:14:05.807Z,56.18
2023-05-22T00:15:10.005Z,56.16
2023-05-22T00:16:11.556Z,55.66
2023-05-22T00:17:15.045Z,55.75
2023-05-22T00:18:17.254Z,55.48
2023-05-22T00:19:18.864Z,55.25
2023-05-22T00:20:20.515Z,55.67
2023-05-22T00:21:22.191Z,55.96
2023-05-22T00:22:23.827Z,55.69
2023-05-22T00:23:27.917Z,55.70
2023-05-22T00:24:29.574Z,55.99
2023-05-22T00:25:31.209Z,56.01
2023-05-22T00:26:32.793Z,56.21
2023-05-22T00:27:34.344Z,56.31
2023-05-22T00:28:35.914Z,55.95
2023-05-22T00:29:37.449Z,55.94
2023-05-22T00:30:39.317Z,56.13
2023-05-22T00:31:41.019Z,55.93
2023-05-22T00:32:42.694Z,55.78
2023-05-22T00:33:44.377Z,55.90
2023-05-22T00:34:46.202Z,55.60
2023-05-22T00:35:47.968Z,55.63
2023-05-22T00:36:49.508Z,55.79
2023-05-22T00:37:51.112Z,55.50
2023-05-22T00:38:52.901Z,55.21
2023-05-22T00:39:54.434Z,55.32
2023-05-22T00:40:56.193Z,55.57
2023-05-22T00:41:57.737Z,55.70
2023-05-22T00:43:02.645Z,55.75
2023-05-22T00:44:04.328Z,55.77
2023-05-22T00:45:06.803Z,55.60
2023-05-22T00:46:08.395Z,55.14
2023-05-22T00:47:09.993Z,54.97
2023-05-22T00:48:12.777Z,54.80
2023-05-22T00:49:14.451Z,54.99
2023-05-22T00:50:16.063Z,54.86
2023-05-22T00:51:17.613Z,54.88
2023-05-22T00:52:19.295Z,54.96
2023-05-22T00:53:21.870Z,55.20
2023-05-22T00:54:23.399Z,55.01
2023-05-22T00:55:24.965Z,55.27
2023-05-22T00:56:27.065Z,55.19
2023-05-22T00:57:28.616Z,55.28
2023-05-22T00:58:30.970Z,55.41
2023-05-22T00:59:32.493Z,55.33
2023-05-22T01:00:35.539Z,55.40
2023-05-22T01:01:42.106Z,55.52
2023-05-22T01:02:44.135Z,55.29
2023-05-22T01:03:46.041Z,55.40
2023-05-22T01:04:51.000Z,55.55
2023-05-22T01:05:53.656Z,55.60
2023-05-22T01:06:55.312Z,55.72
2023-05-22T01:07:57.223Z,55.74
2023-05-22T01:08:59.008Z,55.71
2023-05-22T01:10:01.006Z,55.93
2023-05-22T01:11:08.291Z,56.03
2023-05-22T01:12:28.883Z,55.94
2023-05-22T01:13:43.409Z,55.79
2023-05-22T01:14:49.229Z,55.61
2023-05-22T01:16:22.535Z,55.57
2023-05-22T01:17:34.777Z,55.78
2023-05-22T01:19:19.462Z,56.22
2023-05-22T01:20:32.431Z,56.44
2023-05-22T01:22:03.849Z,56.15
2023-05-22T01:23:35.880Z,55.97
2023-05-22T01:25:05.361Z,56.03
2023-05-22T01:26:28.498Z,56.38
2023-05-22T01:27:43.061Z,56.29
2023-05-22T01:29:03.799Z,56.78
2023-05-22T01:30:23.004Z,56.54
2023-05-22T01:31:27.665Z,56.83
2023-05-22T01:32:29.323Z,56.78
2023-05-22T01:33:34.305Z,56.93
2023-05-22T01:34:37.220Z,57.07
2023-05-22T01:35:38.643Z,56.39
2023-05-22T01:36:40.458Z,56.51
2023-05-22T01:37:44.553Z,57.36
2023-05-22T01:38:46.229Z,57.40
2023-05-22T01:39:47.812Z,57.77
2023-05-22T01:40:49.541Z,57.54
2023-05-22T01:41:51.205Z,57.82
2023-05-22T01:42:53.085Z,57.64
2023-05-22T01:43:54.662Z,57.81
2023-05-22T01:44:56.224Z,57.66
2023-05-22T01:45:57.835Z,57.84
2023-05-22T01:47:04.964Z,57.52
2023-05-22T01:48:07.221Z,57.62
2023-05-22T01:49:09.179Z,57.48
2023-05-22T01:50:11.077Z,57.59
2023-05-22T01:51:26.250Z,57.29
2023-05-22T01:52:30.505Z,56.28
2023-05-22T01:53:42.233Z,56.81
2023-05-22T01:54:50.363Z,56.86
2023-05-22T01:55:57.356Z,56.96
2023-05-22T01:57:25.019Z,57.27
2023-05-22T01:58:29.178Z,56.79
2023-05-22T01:59:34.876Z,57.15
2023-05-22T02:00:37.573Z,57.35
2023-05-22T02:01:39.296Z,57.43
2023-05-22T02:02:43.075Z,57.45
2023-05-22T02:03:44.702Z,57.44
2023-05-22T02:04:49.679Z,57.71
2023-05-22T02:05:54.160Z,57.64
2023-05-22T02:06:55.797Z,57.44
2023-05-22T02:07:58.406Z,57.66
2023-05-22T02:09:00.111Z,57.70
2023-05-22T02:10:02.671Z,57.79
2023-05-22T02:11:04.266Z,57.76
2023-05-22T02:12:06.196Z,58.06
2023-05-22T02:13:07.819Z,57.33
2023-05-22T02:14:12.215Z,57.88
2023-05-22T02:15:14.270Z,57.63
2023-05-22T02:16:15.952Z,57.46
2023-05-22T02:17:21.988Z,57.76
2023-05-22T02:18:29.796Z,57.76
2023-05-22T02:19:31.404Z,58.13
2023-05-22T02:20:33.052Z,57.90
2023-05-22T02:21:35.006Z,57.87
2023-05-22T02:22:36.607Z,58.01
2023-05-22T02:23:38.172Z,58.12
2023-05-22T02:24:43.994Z,58.51
2023-05-22T02:25:45.618Z,58.34
2023-05-22T02:26:47.794Z,58.19
2023-05-22T02:27:52.288Z,58.37
2023-05-22T02:28:53.855Z,58.56
2023-05-22T02:29:55.430Z,58.74
2023-05-22T02:30:57.038Z,58.84
2023-05-22T02:31:58.639Z,58.51
2023-05-22T02:33:00.658Z,58.36
2023-05-22T02:34:05.335Z,58.43
2023-05-22T02:35:07.392Z,58.49
2023-05-22T02:36:11.177Z,58.13
2023-05-22T02:37:13.243Z,58.51
2023-05-22T02:38:15.154Z,58.30
2023-05-22T02:39:18.336Z,58.63
2023-05-22T02:40:19.974Z,58.21
2023-05-22T02:41:21.597Z,58.45
2023-05-22T02:42:23.146Z,58.73
2023-05-22T02:43:25.064Z,58.58
2023-05-22T02:44:26.665Z,58.84
2023-05-22T02:45:28.400Z,58.93
2023-05-22T02:46:29.966Z,58.74
2023-05-22T02:47:31.678Z,59.13
2023-05-22T02:48:33.604Z,58.90
2023-05-22T02:49:35.604Z,58.74
2023-05-22T02:50:37.278Z,58.57
2023-05-22T02:51:38.984Z,58.98
2023-05-22T02:52:40.584Z,58.99
2023-05-22T02:53:42.212Z,58.88
2023-05-22T02:54:44.362Z,59.06
2023-05-22T02:55:46.093Z,58.70
2023-05-22T02:56:47.644Z,59.28
2023-05-22T02:57:49.187Z,59.07
2023-05-22T02:58:50.824Z,58.70
2023-05-22T02:59:52.667Z,58.57
2023-05-22T03:00:54.470Z,58.67
2023-05-22T03:01:56.170Z,58.83
2023-05-22T03:02:57.890Z,59.02
2023-05-22T03:03:59.507Z,58.94
2023-05-22T03:05:01.230Z,58.87
2023-05-22T03:06:04.289Z,59.06
2023-05-22T03:07:07.277Z,58.64
2023-05-22T03:08:08.996Z,58.74
2023-05-22T03:09:10.582Z,58.97
2023-05-22T03:10:12.145Z,59.31
2023-05-22T03:11:13.743Z,59.04
2023-05-22T03:12:15.285Z,58.91
2023-05-22T03:13:16.897Z,58.96
2023-05-22T03:14:18.496Z,59.09
2023-05-22T03:15:20.055Z,59.12
2023-05-22T03:16:21.702Z,59.21
2023-05-22T03:17:23.306Z,59.35
2023-05-22T03:18:27.464Z,59.03
2023-05-22T03:19:29.578Z,59.21
2023-05-22T03:20:31.533Z,59.50
2023-05-22T03:21:33.070Z,59.24
2023-05-22T03:22:34.741Z,59.58
2023-05-22T03:23:36.294Z,59.45
2023-05-22T03:24:37.841Z,59.38
2023-05-22T03:25:39.547Z,58.92
2023-05-22T03:26:41.927Z,59.62
2023-05-22T03:27:43.790Z,59.40
2023-05-22T03:28:45.495Z,59.37
2023-05-22T03:29:47.122Z,58.93
2023-05-22T03:30:48.912Z,58.99
2023-05-22T03:31:50.672Z,58.89
2023-05-22T03:32:53.222Z,59.05
2023-05-22T03:33:54.939Z,58.79
2023-05-22T03:34:56.509Z,59.03
2023-05-22T03:35:58.099Z,58.93
2023-05-22T03:36:59.698Z,58.49
2023-05-22T03:38:01.657Z,58.67
2023-05-22T03:39:03.798Z,58.80
2023-05-22T03:40:06.049Z,58.97
2023-05-22T03:41:07.924Z,58.99
2023-05-22T03:42:09.469Z,58.98
2023-05-22T03:43:11.075Z,58.53
2023-05-22T03:44:12.621Z,58.92
2023-05-22T03:45:14.223Z,58.32
2023-05-22T03:46:15.861Z,58.63
2023-05-22T03:47:17.749Z,58.79
2023-05-22T03:48:20.542Z,59.09
2023-05-22T03:49:22.101Z,58.82
2023-05-22T03:50:23.830Z,59.08
2023-05-22T03:51:25.359Z,59.16
2023-05-22T03:52:27.220Z,59.12
2023-05-22T03:53:29.358Z,59.63
2023-05-22T03:54:31.712Z,58.88
2023-05-22T03:55:33.303Z,59.16
2023-05-22T03:56:35.027Z,59.40
2023-05-22T03:57:36.912Z,59.34
2023-05-22T03:58:38.493Z,59.30
2023-05-22T03:59:40.030Z,59.43
2023-05-22T04:00:42.540Z,59.92
2023-05-22T04:01:46.587Z,59.83
2023-05-22T04:02:50.774Z,59.75
2023-05-22T04:03:52.463Z,59.76
2023-05-22T04:04:54.087Z,59.46
2023-05-22T04:05:56.852Z,59.51
2023-05-22T04:06:59.616Z,59.34
2023-05-22T04:08:01.152Z,59.30
2023-05-22T04:09:02.791Z,59.49
2023-05-22T04:10:05.056Z,59.65
2023-05-22T04:11:06.703Z,59.54
2023-05-22T04:12:08.992Z,59.96
2023-05-22T04:13:10.779Z,59.90
2023-05-22T04:14:12.362Z,59.86
2023-05-22T04:15:13.883Z,59.74
2023-05-22T04:16:17.429Z,59.34
2023-05-22T04:17:19.517Z,59.52
2023-05-22T04:18:21.152Z,60.02
2023-05-22T04:19:22.796Z,59.59
2023-05-22T04:20:24.462Z,59.47
2023-05-22T04:21:26.215Z,59.93
2023-05-22T04:22:31.378Z,60.04
2023-05-22T04:23:32.977Z,59.97
2023-05-22T04:24:34.914Z,59.67
2023-05-22T04:25:36.627Z,59.91
2023-05-22T04:26:40.972Z,59.74
2023-05-22T04:27:44.015Z,59.81
2023-05-22T04:28:46.253Z,60.44
2023-05-22T04:29:48.187Z,59.88
2023-05-22T04:30:49.871Z,59.76
2023-05-22T04:31:54.423Z,60.25
2023-05-22T04:32:57.319Z,60.58
2023-05-22T04:34:00.272Z,59.62
2023-05-22T04:35:02.081Z,59.77
2023-05-22T04:36:04.955Z,59.69
2023-05-22T04:37:06.917Z,59.63
2023-05-22T04:38:08.450Z,59.49
2023-05-22T04:39:09.953Z,59.86
2023-05-22T04:40:12.031Z,60.21
2023-05-22T04:41:14.366Z,59.92
2023-05-22T04:42:15.971Z,60.01
2023-05-22T04:43:18.779Z,60.26
2023-05-22T04:44:23.003Z,59.38
2023-05-22T04:45:25.352Z,59.81
2023-05-22T04:46:28.662Z,59.80
2023-05-22T04:47:31.826Z,59.67
2023-05-22T04:48:33.968Z,59.77
2023-05-22T04:49:35.597Z,59.96
2023-05-22T04:50:38.862Z,59.74
2023-05-22T04:51:41.101Z,59.52
2023-05-22T04:52:42.671Z,59.64
2023-05-22T04:53:44.274Z,59.81
2023-05-22T04:54:46.768Z,59.74
2023-05-22T04:55:48.304Z,59.83
2023-05-22T04:56:51.887Z,60.02
2023-05-22T04:57:53.690Z,59.57
2023-05-22T04:58:55.818Z,59.55
2023-05-22T04:59:57.521Z,59.91
2023-05-22T05:00:59.237Z,59.97
2023-05-22T05:02:01.173Z,59.79
2023-05-22T05:03:04.000Z,59.65
2023-05-22T05:04:05.980Z,59.80
2023-05-22T05:05:08.082Z,59.66
2023-05-22T05:06:09.660Z,59.88
2023-05-22T05:07:11.595Z,59.72
2023-05-22T05:08:13.261Z,59.79
2023-05-22T05:09:14.799Z,59.52
2023-05-22T05:10:16.582Z,59.09
2023-05-22T05:11:18.145Z,58.65
2023-05-22T05:12:19.720Z,58.74
2023-05-22T05:13:21.274Z,58.69
2023-05-22T05:14:23.021Z,59.01
2023-05-22T05:15:24.621Z,58.90
2023-05-22T05:16:26.768Z,58.55
2023-05-22T05:17:28.782Z,58.62
2023-05-22T05:18:30.674Z,58.92
2023-05-22T05:19:33.618Z,58.98
2023-05-22T05:20:36.314Z,59.03
2023-05-22T05:21:39.194Z,58.17
2023-05-22T05:22:40.757Z,57.47
2023-05-22T05:23:42.486Z,57.71
2023-05-22T05:24:44.065Z,57.68
2023-05-22T05:25:45.617Z,57.85
2023-05-22T05:26:47.376Z,57.42
2023-05-22T05:27:48.982Z,57.70
2023-05-22T05:28:51.432Z,58.47
2023-05-22T05:29:53.015Z,58.04
2023-05-22T05:30:54.598Z,57.65
2023-05-22T05:31:56.489Z,57.79
2023-05-22T05:32:58.089Z,57.33
2023-05-22T05:33:59.697Z,57.14
2023-05-22T05:35:01.263Z,57.04
2023-05-22T05:36:03.128Z,57.30
2023-05-22T05:37:05.181Z,57.23
2023-05-22T05:38:06.844Z,56.73
2023-05-22T05:39:08.420Z,56.07
2023-05-22T05:40:10.395Z,55.78
2023-05-22T05:41:12.301Z,56.34
2023-05-22T05:42:13.825Z,56.50
2023-05-22T05:43:15.462Z,56.62
2023-05-22T05:44:17.015Z,56.63
2023-05-22T05:45:18.583Z,56.90
2023-05-22T05:46:20.492Z,56.59
2023-05-22T05:47:23.985Z,56.92
2023-05-22T05:48:25.809Z,56.63
2023-05-22T05:49:27.454Z,56.18
2023-05-22T05:50:29.025Z,55.53
2023-05-22T05:51:31.437Z,55.49
2023-05-22T05:52:33.521Z,55.39
2023-05-22T05:53:36.989Z,55.64
2023-05-22T05:54:39.142Z,55.34
2023-05-22T05:55:40.662Z,55.19
2023-05-22T05:56:42.590Z,55.29
2023-05-22T05:57:44.124Z,55.59
2023-05-22T05:58:45.719Z,55.93
2023-05-22T05:59:47.269Z,55.62
2023-05-22T06:00:48.835Z,55.03
2023-05-22T06:01:50.699Z,55.32
2023-05-22T06:02:52.323Z,54.81
2023-05-22T06:03:54.189Z,54.62
2023-05-22T06:04:56.009Z,54.74
2023-05-22T06:05:57.991Z,54.78
2023-05-22T06:07:01.734Z,55.05
2023-05-22T06:08:04.344Z,54.56
2023-05-22T06:09:06.587Z,54.73
2023-05-22T06:10:12.575Z,54.78
2023-05-22T06:11:14.483Z,54.53
2023-05-22T06:12:16.129Z,54.52
2023-05-22T06:13:17.760Z,53.87
2023-05-22T06:14:19.351Z,53.53
2023-05-22T06:15:21.213Z,53.23
2023-05-22T06:16:22.897Z,53.19
2023-05-22T06:17:24.531Z,52.78
2023-05-22T06:18:26.178Z,52.17
2023-05-22T06:19:27.805Z,51.48
2023-05-22T06:20:29.471Z,51.52
2023-05-22T06:21:31.480Z,51.74
2023-05-22T06:22:33.032Z,51.77
2023-05-22T06:23:34.602Z,51.90
2023-05-22T06:24:36.166Z,52.60
2023-05-22T06:25:40.081Z,52.82
2023-05-22T06:26:41.955Z,52.65
2023-05-22T06:27:43.612Z,51.27
2023-05-22T06:28:45.595Z,51.24
2023-05-22T06:29:47.233Z,51.01
2023-05-22T06:30:49.074Z,50.79
2023-05-22T06:31:50.857Z,50.78
2023-05-22T06:32:52.521Z,50.50
2023-05-22T06:33:54.278Z,49.98
2023-05-22T06:34:55.954Z,49.42
2023-05-22T06:35:57.881Z,49.71
2023-05-22T06:36:59.457Z,49.65
2023-05-22T06:38:01.023Z,49.89
2023-05-22T06:39:02.827Z,49.33
2023-05-22T06:40:06.128Z,49.38
2023-05-22T06:41:08.417Z,49.39
2023-05-22T06:42:09.966Z,48.39
2023-05-22T06:43:12.333Z,49.04
2023-05-22T06:44:13.961Z,48.79
2023-05-22T06:45:17.797Z,48.99
2023-05-22T06:46:19.711Z,48.42
2023-05-22T06:47:21.368Z,48.12
2023-05-22T06:48:23.069Z,48.64
2023-05-22T06:49:24.696Z,48.56
2023-05-22T06:50:26.581Z,48.59
2023-05-22T06:51:29.441Z,48.15
2023-05-22T06:52:31.875Z,47.71
2023-05-22T06:53:33.584Z,48.06
2023-05-22T06:54:35.311Z,48.24
2023-05-22T06:55:37.217Z,47.91
2023-05-22T06:56:38.875Z,47.82
2023-05-22T06:57:40.544Z,47.97
2023-05-22T06:58:42.224Z,47.18
2023-05-22T06:59:43.894Z,47.18
2023-05-22T07:00:45.824Z,47.37
2023-05-22T07:01:47.505Z,47.83
2023-05-22T07:02:49.489Z,48.58
2023-05-22T07:03:51.071Z,48.96
2023-05-22T07:04:53.643Z,47.72
2023-05-22T07:05:57.903Z,46.38
2023-05-22T07:06:59.529Z,45.76
2023-05-22T07:08:01.621Z,46.54
2023-05-22T07:09:03.389Z,46.42
2023-05-22T07:10:05.404Z,46.39
2023-05-22T07:11:07.733Z,46.17
2023-05-22T07:12:09.598Z,44.56
2023-05-22T07:13:11.344Z,44.72
2023-05-22T07:14:13.027Z,44.61
2023-05-22T07:15:15.016Z,44.75
2023-05-22T07:16:16.602Z,44.00
2023-05-22T07:17:18.826Z,44.04
2023-05-22T07:18:20.424Z,43.97
2023-05-22T07:19:22.017Z,44.77
2023-05-22T07:20:25.888Z,43.68
2023-05-22T07:21:27.455Z,43.30
2023-05-22T07:22:29.131Z,43.42
2023-05-22T07:23:30.649Z,43.72
2023-05-22T07:24:32.525Z,43.40
2023-05-22T07:25:34.477Z,43.47
2023-05-22T07:26:36.564Z,44.41
2023-05-22T07:27:38.152Z,44.11
2023-05-22T07:28:39.682Z,43.60
2023-05-22T07:29:41.449Z,42.72
2023-05-22T07:30:43.368Z,42.94
2023-05-22T07:31:45.004Z,43.50
2023-05-22T07:32:47.164Z,43.40
2023-05-22T07:33:48.967Z,43.22
2023-05-22T07:34:50.539Z,43.33
2023-05-22T07:35:52.568Z,43.26
2023-05-22T07:36:54.152Z,43.67
2023-05-22T07:37:55.898Z,43.44
2023-05-22T07:38:57.925Z,42.93
2023-05-22T07:39:59.547Z,41.45
2023-05-22T07:41:02.906Z,42.09
2023-05-22T07:42:05.046Z,42.04
2023-05-22T07:43:06.663Z,40.79
2023-05-22T07:44:08.342Z,41.54
2023-05-22T07:45:10.932Z,42.15
2023-05-22T07:46:12.572Z,42.37
2023-05-22T07:47:14.407Z,41.66
2023-05-22T07:48:16.150Z,40.94
2023-05-22T07:49:20.271Z,40.26
2023-05-22T07:50:22.412Z,40.73
2023-05-22T07:51:24.082Z,40.86
2023-05-22T07:52:25.985Z,40.56
2023-05-22T07:53:27.587Z,40.28
2023-05-22T07:54:29.238Z,40.67
2023-05-22T07:55:31.511Z,41.40
2023-05-22T07:56:33.251Z,39.59
2023-05-22T07:57:36.194Z,41.33
2023-05-22T07:58:40.114Z,40.74
2023-05-22T07:59:44.266Z,41.53
2023-05-22T08:00:46.419Z,41.67
2023-05-22T08:01:48.171Z,41.33
2023-05-22T08:02:49.977Z,40.88
2023-05-22T08:03:52.107Z,41.30
2023-05-22T08:04:55.841Z,41.47
2023-05-22T08:06:00.425Z,41.83
2023-05-22T08:07:02.657Z,40.69
2023-05-22T08:08:04.902Z,40.04
2023-05-22T08:09:06.585Z,40.43
2023-05-22T08:10:14.242Z,41.09
2023-05-22T08:11:15.902Z,41.26
2023-05-22T08:12:17.516Z,41.08
2023-05-22T08:13:19.391Z,40.34
2023-05-22T08:14:21.812Z,40.54
2023-05-22T08:15:23.454Z,40.58
2023-05-22T08:16:25.402Z,40.24
2023-05-22T08:17:27.198Z,39.39
2023-05-22T08:18:29.910Z,39.33
2023-05-22T08:19:32.519Z,40.62
2023-05-22T08:20:34.229Z,40.65
2023-05-22T08:21:35.986Z,40.32
2023-05-22T08:22:38.884Z,39.93
2023-05-22T08:23:40.479Z,40.29
2023-05-22T08:24:42.027Z,39.19
2023-05-22T08:25:43.929Z,39.43
2023-05-22T08:26:45.618Z,39.85
2023-05-22T08:27:47.220Z,39.80
2023-05-22T08:28:48.807Z,39.86
2023-05-22T08:29:50.443Z,40.16
2023-05-22T08:30:52.130Z,39.81
2023-05-22T08:31:56.908Z,39.50
2023-05-22T08:32:58.669Z,38.79
2023-05-22T08:34:03.036Z,38.54
2023-05-22T08:35:05.247Z,38.74
2023-05-22T08:36:07.013Z,39.55
2023-05-22T08:37:09.512Z,38.08
2023-05-22T08:38:11.345Z,38.25
2023-05-22T08:39:13.094Z,39.19
2023-05-22T08:40:14.986Z,39.91
2023-05-22T08:41:16.641Z,40.05
2023-05-22T08:42:18.247Z,39.27
2023-05-22T08:43:20.238Z,39.21
2023-05-22T08:44:22.067Z,39.51
2023-05-22T08:45:26.061Z,39.22
2023-05-22T08:46:29.245Z,38.98
2023-05-22T08:47:33.029Z,38.94
2023-05-22T08:48:34.734Z,39.26
2023-05-22T08:49:36.391Z,39.07
2023-05-22T08:50:42.155Z,38.57
2023-05-22T08:51:44.920Z,38.00
2023-05-22T08:52:52.691Z,38.49
2023-05-22T08:53:56.376Z,39.13
2023-05-22T08:54:58.042Z,38.54
2023-05-22T08:55:59.651Z,38.54
2023-05-22T08:57:01.284Z,38.21
2023-05-22T08:58:02.839Z,37.66
2023-05-22T08:59:05.059Z,37.38
2023-05-22T09:00:07.880Z,37.69
2023-05-22T09:01:09.660Z,37.82
2023-05-22T09:02:11.354Z,37.70
2023-05-22T09:03:14.806Z,37.79
2023-05-22T09:04:16.820Z,38.82
2023-05-22T09:05:18.477Z,38.81
2023-05-22T09:06:20.035Z,38.98
2023-05-22T09:07:22.244Z,37.13
2023-05-22T09:08:24.196Z,37.50
2023-05-22T09:09:26.158Z,37.64
2023-05-22T09:10:27.967Z,37.38
2023-05-22T09:11:29.583Z,37.68
2023-05-22T09:12:32.040Z,37.78
2023-05-22T09:13:33.803Z,37.82
2023-05-22T09:14:42.297Z,37.66
2023-05-22T09:15:43.943Z,37.82
2023-05-22T09:16:49.997Z,37.36
2023-05-22T09:17:51.628Z,38.16
2023-05-22T09:18:53.568Z,38.36
2023-05-22T09:19:55.149Z,36.65
2023-05-22T09:21:00.086Z,36.53
2023-05-22T09:22:04.090Z,37.10
2023-05-22T09:23:14.397Z,36.82
2023-05-22T09:24:16.072Z,38.05
2023-05-22T09:25:18.998Z,37.71
2023-05-22T09:26:21.067Z,36.30
2023-05-22T09:27:23.111Z,35.86
2023-05-22T09:28:25.117Z,35.96
2023-05-22T09:29:26.707Z,35.82
2023-05-22T09:30:28.273Z,36.13
2023-05-22T09:31:30.104Z,35.27
2023-05-22T09:32:31.924Z,34.27
2023-05-22T09:33:33.570Z,35.27
2023-05-22T09:34:35.575Z,35.48
2023-05-22T09:35:39.144Z,36.25
2023-05-22T09:36:41.346Z,36.09
2023-05-22T09:37:42.903Z,36.09
2023-05-22T09:38:44.462Z,36.51
2023-05-22T09:39:47.376Z,35.70
2023-05-22T09:40:52.667Z,35.76
2023-05-22T09:41:54.218Z,36.14
2023-05-22T09:42:55.831Z,36.22
2023-05-22T09:43:58.336Z,36.86
2023-05-22T09:45:05.691Z,35.83
2023-05-22T09:46:07.303Z,35.66
2023-05-22T09:47:10.068Z,34.69
2023-05-22T09:48:12.720Z,34.33
2023-05-22T09:49:16.552Z,34.58
2023-05-22T09:50:19.100Z,34.63
2023-05-22T09:51:22.400Z,35.54
2023-05-22T09:52:24.193Z,34.68
2023-05-22T09:53:28.499Z,34.96
2023-05-22T09:54:32.152Z,34.75
2023-05-22T09:55:33.895Z,35.24
2023-05-22T09:56:40.176Z,35.77
2023-05-22T09:57:46.421Z,35.13
2023-05-22T09:58:48.162Z,35.37
2023-05-22T09:59:54.513Z,35.31
2023-05-22T10:00:56.374Z,34.59
2023-05-22T10:01:58.078Z,34.28
2023-05-22T10:03:04.158Z,34.82
2023-05-22T10:04:06.231Z,34.80
2023-05-22T10:05:10.927Z,34.70
2023-05-22T10:06:13.199Z,34.86
2023-05-22T10:07:14.831Z,35.59
2023-05-22T10:08:21.808Z,35.70
2023-05-22T10:09:25.184Z,36.37
2023-05-22T10:10:26.943Z,36.00
2023-05-22T10:11:29.342Z,35.60
2023-05-22T10:12:33.185Z,35.53
2023-05-22T10:13:35.872Z,35.40
2023-05-22T10:14:37.477Z,34.36
2023-05-22T10:15:39.196Z,33.98
2023-05-22T10:16:41.513Z,34.69
2023-05-22T10:17:43.314Z,34.97
2023-05-22T10:18:46.338Z,35.68
2023-05-22T10:19:48.264Z,35.32
2023-05-22T10:20:50.138Z,35.09
2023-05-22T10:21:51.764Z,35.04
2023-05-22T10:22:53.679Z,32.69
2023-05-22T10:23:55.276Z,32.15
2023-05-22T10:24:56.919Z,32.70
2023-05-22T10:25:58.581Z,32.35
2023-05-22T10:27:02.018Z,30.73
2023-05-22T10:28:03.839Z,31.22
2023-05-22T10:29:11.238Z,32.37
2023-05-22T10:30:28.426Z,31.04
2023-05-22T10:31:53.851Z,30.65
2023-05-22T10:33:03.253Z,31.12
2023-05-22T10:34:06.919Z,32.17
2023-05-22T10:35:21.584Z,31.06
2023-05-22T10:36:29.980Z,31.56
2023-05-22T10:37:39.634Z,30.65
2023-05-22T10:38:57.026Z,29.92
2023-05-22T10:40:07.593Z,30.33
2023-05-22T10:41:09.351Z,30.08
2023-05-22T10:42:13.813Z,29.73
2023-05-22T10:43:15.377Z,29.41
2023-05-22T10:44:18.181Z,29.51
2023-05-22T10:45:19.600Z,28.61
2023-05-22T10:46:21.311Z,28.56
2023-05-22T10:47:22.992Z,27.77
2023-05-22T10:48:25.967Z,27.81
2023-05-22T10:49:28.464Z,28.31
2023-05-22T10:50:30.104Z,29.15
2023-05-22T10:51:31.738Z,28.21
2023-05-22T10:52:33.356Z,29.19
2023-05-22T10:53:35.395Z,29.16
2023-05-22T10:54:41.177Z,28.54
2023-05-22T10:55:52.862Z,28.05
2023-05-22T10:57:09.311Z,28.83
2023-05-22T10:58:13.731Z,28.88
2023-05-22T10:59:15.389Z,29.50
2023-05-22T11:00:19.257Z,28.79
2023-05-22T11:01:21.397Z,29.46
2023-05-22T11:02:31.228Z,28.66
2023-05-22T11:03:54.626Z,29.13
2023-05-22T11:04:56.247Z,28.13
2023-05-22T11:05:57.844Z,27.88
2023-05-22T11:07:04.387Z,28.03
2023-05-22T11:08:32.575Z,28.37
2023-05-22T11:09:45.127Z,27.90
2023-05-22T11:10:56.759Z,28.34
2023-05-22T11:12:31.107Z,26.82
2023-05-22T11:13:34.441Z,27.12
2023-05-22T11:14:36.683Z,26.72
2023-05-22T11:15:43.821Z,27.19
2023-05-22T11:16:45.627Z,27.33
2023-05-22T11:17:51.701Z,27.44
2023-05-22T11:19:22.631Z,26.89
2023-05-22T11:20:25.848Z,27.55
2023-05-22T11:21:29.409Z,27.63
2023-05-22T11:22:37.770Z,26.96
2023-05-22T11:23:39.674Z,26.36
2023-05-22T11:24:41.365Z,26.56
2023-05-22T11:25:42.954Z,26.13
2023-05-22T11:26:44.585Z,25.19
2023-05-22T11:27:47.370Z,26.03
2023-05-22T11:28:49.178Z,25.54
2023-05-22T11:29:51.590Z,26.25
2023-05-22T11:30:53.261Z,25.80
2023-05-22T11:31:55.005Z,25.98
2023-05-22T11:32:58.019Z,25.78
2023-05-22T11:34:00.239Z,26.22
2023-05-22T11:35:01.868Z,25.20
2023-05-22T11:36:03.526Z,25.85
2023-05-22T11:37:05.403Z,25.49
2023-05-22T11:38:08.254Z,23.81
2023-05-22T11:39:10.317Z,23.91
2023-05-22T11:40:15.236Z,23.18
2023-05-22T11:41:17.194Z,23.89
2023-05-22T11:42:20.155Z,24.13
2023-05-22T11:43:34.035Z,24.19
2023-05-22T11:44:35.616Z,24.74
2023-05-22T11:45:38.175Z,24.86
2023-05-22T11:46:40.015Z,25.71
2023-05-22T11:47:42.557Z,25.83
2023-05-22T11:48:44.267Z,26.00
2023-05-22T11:49:45.930Z,25.72
2023-05-22T11:50:47.686Z,25.39
2023-05-22T11:51:49.719Z,25.48
2023-05-22T11:52:51.320Z,25.43
2023-05-22T11:53:53.387Z,26.28
2023-05-22T11:54:54.954Z,27.00
2023-05-22T11:55:56.605Z,25.47
2023-05-22T11:56:58.419Z,25.83
2023-05-22T11:58:02.574Z,25.29
2023-05-22T11:59:04.202Z,25.73
2023-05-22T12:00:08.304Z,25.56
2023-05-22T12:01:10.209Z,25.70
2023-05-22T12:02:11.907Z,25.73
2023-05-22T12:03:14.123Z,25.10
2023-05-22T12:04:16.141Z,24.74
2023-05-22T12:05:20.387Z,24.71
2023-05-22T12:06:22.033Z,25.19
2023-05-22T12:07:24.563Z,25.17
2023-05-22T12:08:26.693Z,25.29
2023-05-22T12:09:28.279Z,25.35
2023-05-22T12:10:29.861Z,24.00
2023-05-22T12:11:35.042Z,24.02
2023-05-22T12:12:37.334Z,23.81
2023-05-22T12:13:39.495Z,23.75
2023-05-22T12:14:44.241Z,24.73
2023-05-22T12:15:46.413Z,24.80
2023-05-22T12:16:52.063Z,24.15
2023-05-22T12:17:56.788Z,24.18
2023-05-22T12:18:58.578Z,24.48
2023-05-22T12:20:00.256Z,24.56
2023-05-22T12:21:01.898Z,24.08
2023-05-22T12:22:04.643Z,24.92
2023-05-22T12:23:06.180Z,22.04
2023-05-22T12:24:08.165Z,21.57
2023-05-22T12:25:20.062Z,22.21
2023-05-22T12:26:21.888Z,21.84
2023-05-22T12:27:23.435Z,22.28
2023-05-22T12:28:25.068Z,22.41
2023-05-22T12:29:26.686Z,23.09
2023-05-22T12:30:28.355Z,23.49
2023-05-22T12:31:35.880Z,24.43
2023-05-22T12:32:37.794Z,23.58
2023-05-22T12:33:40.290Z,23.92
2023-05-22T12:34:46.044Z,24.37
2023-05-22T12:35:51.060Z,24.07
2023-05-22T12:36:53.190Z,24.06
2023-05-22T12:37:54.855Z,23.85
2023-05-22T12:38:58.048Z,24.58
2023-05-22T12:40:00.976Z,24.17
2023-05-22T12:41:03.088Z,24.19
2023-05-22T12:42:04.796Z,24.49
2023-05-22T12:43:06.371Z,24.29
2023-05-22T12:44:08.561Z,24.56
2023-05-22T12:45:11.496Z,24.87
2023-05-22T12:46:13.668Z,24.85
2023-05-22T12:47:15.341Z,24.60
2023-05-22T12:48:17.242Z,24.68
2023-05-22T12:49:18.967Z,24.33
2023-05-22T12:50:20.648Z,24.59
2023-05-22T12:51:24.064Z,24.37
2023-05-22T12:52:25.667Z,25.24
2023-05-22T12:53:27.372Z,24.86
2023-05-22T12:54:28.996Z,25.49
2023-05-22T12:55:31.196Z,25.08
2023-05-22T12:56:32.780Z,26.06
2023-05-22T12:57:34.361Z,26.25
2023-05-22T12:58:35.983Z,25.76
2023-05-22T12:59:37.970Z,26.77
2023-05-22T13:00:39.786Z,27.04
2023-05-22T13:01:41.608Z,25.84
2023-05-22T13:02:43.312Z,26.33
2023-05-22T13:03:46.632Z,26.47
2023-05-22T13:04:48.284Z,27.22
2023-05-22T13:05:50.281Z,27.62
2023-05-22T13:06:51.852Z,27.48
2023-05-22T13:07:55.950Z,27.59
2023-05-22T13:08:57.776Z,26.90
2023-05-22T13:09:59.412Z,27.37
2023-05-22T13:11:00.988Z,27.20
2023-05-22T13:12:02.674Z,27.41
2023-05-22T13:13:04.448Z,27.63
2023-05-22T13:14:06.026Z,27.53
2023-05-22T13:15:08.255Z,27.71
2023-05-22T13:16:10.783Z,26.87
2023-05-22T13:17:12.526Z,26.87
2023-05-22T13:18:14.133Z,26.11
2023-05-22T13:19:15.973Z,26.68
2023-05-22T13:20:17.737Z,26.77
2023-05-22T13:21:19.347Z,26.10
2023-05-22T13:22:21.149Z,26.24
2023-05-22T13:23:23.286Z,26.16
2023-05-22T13:24:24.888Z,25.78
2023-05-22T13:25:26.496Z,25.69
2023-05-22T13:26:28.133Z,26.41
2023-05-22T13:27:31.904Z,26.21
2023-05-22T13:28:35.495Z,25.76
2023-05-22T13:29:37.156Z,25.71
2023-05-22T13:30:39.180Z,25.52
2023-05-22T13:31:41.490Z,25.39
2023-05-22T13:32:43.112Z,25.54